Time;durP1;ratioP1;P1;durP2;ratioP2;P2;SDS_P1;SDS_P2;PMS_P1;PMS_P2;Temp;Humidity;BMP_temperature;BMP_pressure;BME280_temperature;BME280_humidity;BME280_pressure;Samples;Min_cycle;Max_cycle;Signal;HPM_P1;HPM_P2
2021/09/05 00:00:30;;;;;;;8.65;4.85;;;;;;;23.60;47.75;100795.53;1751844;81;21115;-46
2021/09/05 00:02:58;;;;;;;7.72;4.40;;;;;;;23.60;47.80;100798.31;1746784;81;21119;-47
2021/09/05 00:05:24;;;;;;;7.35;4.22;;;;;;;23.59;47.84;100800.27;1750739;81;21131;-47
2021/09/05 00:07:50;;;;;;;12.10;4.92;;;;;;;23.58;47.88;100800.05;1744803;81;21466;-46
2021/09/05 00:10:16;;;;;;;8.10;5.00;;;;;;;23.59;47.91;100800.88;1740471;81;20928;-48
2021/09/05 00:12:42;;;;;;;8.93;4.50;;;;;;;23.59;47.96;100804.44;1748549;81;20984;-48
2021/09/05 00:15:10;;;;;;;6.83;4.47;;;;;;;23.59;47.99;100804.44;1754112;81;21044;-48
2021/09/05 00:17:38;;;;;;;7.55;4.58;;;;;;;23.58;48.03;100802.83;1741948;81;21104;-47
2021/09/05 00:20:06;;;;;;;8.10;5.12;;;;;;;23.58;48.07;100801.44;1739785;81;21016;-46
2021/09/05 00:22:32;;;;;;;6.55;4.47;;;;;;;23.58;48.12;100799.23;1749999;81;21051;-47
2021/09/05 00:24:58;;;;;;;8.75;4.72;;;;;;;23.59;48.16;100806.42;1741535;81;21097;-47
2021/09/05 00:27:24;;;;;;;7.97;4.40;;;;;;;23.57;48.21;100801.20;1748055;81;20925;-47
2021/09/05 00:29:50;;;;;;;8.85;5.15;;;;;;;23.57;48.24;100803.16;1751079;81;21657;-46
2021/09/05 00:32:17;;;;;;;9.83;4.78;;;;;;;23.58;48.29;100809.77;1744348;81;21725;-47
2021/09/05 00:34:43;;;;;;;8.43;4.75;;;;;;;23.57;48.33;100808.71;1740520;81;21067;-47
2021/09/05 00:37:09;;;;;;;7.22;4.45;;;;;;;23.57;48.35;100807.33;1752561;81;21586;-48
2021/09/05 00:39:35;;;;;;;8.25;4.60;;;;;;;23.56;48.41;100813.45;1749529;79;21092;-49
2021/09/05 00:42:01;;;;;;;6.67;4.70;;;;;;;23.56;48.44;100807.89;1745745;79;21180;-46
2021/09/05 00:44:28;;;;;;;7.85;4.25;;;;;;;23.56;48.48;100812.06;1742681;81;21129;-48
2021/09/05 00:46:54;;;;;;;7.33;4.42;;;;;;;23.56;48.52;100811.25;1747373;81;21593;-47
2021/09/05 00:49:21;;;;;;;7.22;4.20;;;;;;;23.56;48.57;100813.45;1748900;81;21041;-47
2021/09/05 00:51:47;;;;;;;6.60;4.42;;;;;;;23.56;48.60;100813.45;1749103;81;21074;-50
2021/09/05 00:54:16;;;;;;;6.78;4.40;;;;;;;23.56;48.65;100811.25;1716727;81;21122;-48
2021/09/05 00:56:45;;;;;;;7.17;4.65;;;;;;;23.56;48.68;100814.02;1749581;81;21052;-47
2021/09/05 00:59:22;;;;;;;6.37;4.37;;;;;;;23.55;48.71;100810.42;1748617;81;21481;-48
2021/09/05 01:01:45;;;;;;;5.53;4.42;;;;;;;23.55;48.76;100815.98;1745703;80;37811;-47
2021/09/05 01:04:11;;;;;;;5.85;4.12;;;;;;;23.55;48.80;100815.20;1754816;81;21005;-48
2021/09/05 01:06:38;;;;;;;7.40;3.92;;;;;;;23.55;48.83;100816.58;1745023;81;21067;-47
2021/09/05 01:09:05;;;;;;;6.22;4.05;;;;;;;23.54;48.88;100814.38;1748534;81;21080;-47
2021/09/05 01:11:32;;;;;;;6.25;4.05;;;;;;;23.55;48.92;100822.14;1744081;81;21068;-48
2021/09/05 01:13:59;;;;;;;5.92;4.45;;;;;;;23.54;48.93;100817.73;1726149;81;21143;-47
2021/09/05 01:16:30;;;;;;;7.80;4.42;;;;;;;23.55;48.99;100820.75;1754894;81;21083;-47
2021/09/05 01:19:04;;;;;;;7.75;4.15;;;;;;;23.54;49.02;100825.48;1745944;81;21537;-49
2021/09/05 01:21:30;;;;;;;8.05;4.72;;;;;;;23.53;49.07;100823.85;1748410;80;21006;-47
2021/09/05 01:23:57;;;;;;;6.67;4.25;;;;;;;23.52;49.09;100826.38;1747980;81;21003;-51
2021/09/05 01:26:26;;;;;;;7.22;4.08;;;;;;;23.52;49.10;100825.00;1762400;80;21915;-46
2021/09/05 01:28:53;;;;;;;7.25;4.72;;;;;;;23.52;49.16;100820.02;1775904;80;21059;-46
2021/09/05 01:31:21;;;;;;;7.05;4.40;;;;;;;23.53;49.19;100822.47;1774369;80;21072;-46
2021/09/05 01:33:47;;;;;;;8.10;4.47;;;;;;;23.51;49.22;100827.53;1758285;81;21498;-48
2021/09/05 01:36:14;;;;;;;6.08;4.53;;;;;;;23.52;49.25;100822.79;1728981;82;21715;-46
2021/09/05 01:38:40;;;;;;;6.33;4.78;;;;;;;23.51;49.28;100824.75;1754756;80;21925;-46
2021/09/05 01:41:06;;;;;;;7.20;4.22;;;;;;;23.51;49.32;100824.75;1774342;80;21050;-45
2021/09/05 01:43:32;;;;;;;6.95;4.40;;;;;;;23.50;49.36;100825.92;1757623;79;21233;-46
2021/09/05 01:45:58;;;;;;;6.05;4.33;;;;;;;23.51;49.37;100827.53;1758640;80;21021;-45
2021/09/05 01:48:25;;;;;;;7.40;4.03;;;;;;;23.51;49.42;100830.30;1765135;81;21078;-49
2021/09/05 01:50:51;;;;;;;4.90;3.72;;;;;;;23.51;49.44;100826.14;1762125;81;21087;-47
2021/09/05 01:53:17;;;;;;;6.15;4.08;;;;;;;23.51;49.45;100825.32;1773746;80;22343;-46
2021/09/05 01:55:43;;;;;;;7.65;4.15;;;;;;;23.50;49.50;100821.77;1773882;80;21688;-47
2021/09/05 01:58:09;;;;;;;6.00;4.25;;;;;;;23.50;49.51;100825.92;1745530;81;21063;-48
2021/09/05 02:00:36;;;;;;;7.90;4.22;;;;;;;23.50;49.56;100822.33;1774707;80;21022;-47
2021/09/05 02:03:02;;;;;;;7.17;4.35;;;;;;;23.49;49.58;100827.06;1746893;81;21551;-46
2021/09/05 02:05:28;;;;;;;6.30;4.17;;;;;;;23.50;49.62;100834.83;1778889;80;21158;-47
2021/09/05 02:07:55;;;;;;;5.60;3.77;;;;;;;23.49;49.63;100831.80;1762947;80;21060;-47
2021/09/05 02:10:21;;;;;;;5.40;4.00;;;;;;;23.50;49.68;100838.42;1760995;80;21090;-46
2021/09/05 02:12:47;;;;;;;6.83;3.83;;;;;;;23.48;49.70;100842.09;1765321;80;21115;-46
2021/09/05 02:15:13;;;;;;;7.78;4.28;;;;;;;23.49;49.72;100839.56;1755490;80;21004;-46
2021/09/05 02:17:40;;;;;;;7.15;4.12;;;;;;;23.49;49.77;100841.52;1743850;81;21068;-46
2021/09/05 02:20:07;;;;;;;6.83;4.00;;;;;;;23.48;49.77;100846.26;1748423;81;21031;-46
2021/09/05 02:22:33;;;;;;;6.70;3.92;;;;;;;23.49;49.80;100844.30;1754096;81;21100;-48
2021/09/05 02:25:00;;;;;;;6.28;4.42;;;;;;;23.48;49.83;100842.66;1736815;81;21083;-46
2021/09/05 02:27:28;;;;;;;7.17;4.25;;;;;;;23.48;49.85;100853.20;1752372;81;21087;-48
2021/09/05 02:29:54;;;;;;;6.10;4.03;;;;;;;23.48;49.88;100857.94;1754548;81;21075;-47
2021/09/05 02:32:20;;;;;;;5.80;3.70;;;;;;;23.47;49.91;100851.56;1753524;81;21496;-46
2021/09/05 02:34:46;;;;;;;6.45;4.25;;;;;;;23.47;49.92;100854.34;1751238;81;21111;-48
2021/09/05 02:37:12;;;;;;;6.65;3.83;;;;;;;23.48;49.94;100857.37;1753757;81;21494;-46
2021/09/05 02:39:38;;;;;;;6.12;3.67;;;;;;;23.47;49.99;100856.30;1743410;81;20858;-45
2021/09/05 02:42:05;;;;;;;4.47;3.50;;;;;;;23.46;50.01;100856.09;1747645;81;21135;-46
2021/09/05 02:44:31;;;;;;;6.00;3.90;;;;;;;23.47;50.00;100860.47;1751237;81;21146;-47
2021/09/05 02:46:57;;;;;;;5.37;4.10;;;;;;;23.46;50.05;100858.86;1754599;79;21531;-46
2021/09/05 02:49:23;;;;;;;5.25;3.98;;;;;;;23.46;50.05;100858.30;1749025;81;21310;-48
2021/09/05 02:51:50;;;;;;;5.12;3.50;;;;;;;23.46;50.08;100856.09;1748586;81;21166;-46
2021/09/05 02:54:16;;;;;;;4.25;3.40;;;;;;;23.45;50.12;100861.39;1752352;81;20988;-47
2021/09/05 02:56:42;;;;;;;6.53;4.92;;;;;;;23.45;50.12;100856.66;1752296;80;23355;-46
2021/09/05 02:59:08;;;;;;;6.37;3.85;;;;;;;23.44;50.15;100867.52;1749171;81;20973;-48
2021/09/05 03:01:34;;;;;;;5.87;3.87;;;;;;;23.43;50.18;100868.66;1754958;81;21008;-48
2021/09/05 03:04:00;;;;;;;5.78;3.30;;;;;;;23.45;50.20;100873.32;1755140;80;21058;-46
2021/09/05 03:06:26;;;;;;;6.10;3.98;;;;;;;23.44;50.21;100865.31;1753890;81;21609;-46
2021/09/05 03:08:52;;;;;;;6.05;3.77;;;;;;;23.45;50.25;100876.66;1746145;81;21958;-49
2021/09/05 03:11:18;;;;;;;4.53;3.77;;;;;;;23.44;50.26;100880.02;1744436;81;20936;-46
2021/09/05 03:13:47;;;;;;;5.60;3.70;;;;;;;23.43;50.27;100882.55;1751197;81;21423;-47
2021/09/05 03:16:12;;;;;;;6.65;3.67;;;;;;;23.43;50.29;100872.83;1753434;80;21055;-47
2021/09/05 03:18:38;;;;;;;6.30;4.03;;;;;;;23.43;50.30;100876.99;1745657;79;21111;-47
2021/09/05 03:21:04;;;;;;;4.92;3.58;;;;;;;23.42;50.31;100878.13;1753381;81;21239;-47
2021/09/05 03:23:30;;;;;;;5.28;3.60;;;;;;;23.42;50.34;100875.36;1750135;81;21644;-48
2021/09/05 03:25:56;;;;;;;5.47;3.65;;;;;;;23.42;50.37;100875.36;1751669;81;20997;-47
2021/09/05 03:28:22;;;;;;;5.00;4.15;;;;;;;23.41;50.39;100886.22;1755763;81;21155;-49
2021/09/05 03:30:48;;;;;;;5.55;3.47;;;;;;;23.42;50.41;100889.23;1749547;81;21138;-46
2021/09/05 03:33:14;;;;;;;5.28;3.87;;;;;;;23.41;50.42;100884.83;1744121;81;21245;-47
2021/09/05 03:35:40;;;;;;;6.65;3.58;;;;;;;23.41;50.44;100888.17;1758073;81;20893;-46
2021/09/05 03:38:06;;;;;;;5.65;3.92;;;;;;;23.41;50.45;100892.34;1770117;80;20976;-46
2021/09/05 03:40:33;;;;;;;7.55;4.03;;;;;;;23.42;50.46;100895.36;1758489;80;21559;-49
2021/09/05 03:43:00;;;;;;;5.60;3.80;;;;;;;23.40;50.50;100897.64;1747518;81;21078;-45
2021/09/05 03:45:25;;;;;;;5.47;3.80;;;;;;;23.40;50.51;100906.80;1767443;80;21272;-46
2021/09/05 03:47:52;;;;;;;4.90;3.52;;;;;;;23.40;50.52;100905.41;1745712;81;21567;-47
2021/09/05 03:50:18;;;;;;;4.97;3.83;;;;;;;23.40;50.53;100906.80;1740595;81;21063;-46
2021/09/05 03:52:44;;;;;;;4.65;3.65;;;;;;;23.40;50.56;100902.63;1734007;81;21635;-46
2021/09/05 03:55:11;;;;;;;4.97;3.60;;;;;;;23.40;50.59;100905.97;1736073;81;21884;-48
2021/09/05 03:57:37;;;;;;;4.70;3.22;;;;;;;23.39;50.61;100912.09;1735332;81;21987;-46
2021/09/05 04:00:05;;;;;;;4.92;3.50;;;;;;;23.39;50.61;100918.22;1740476;81;21013;-46
2021/09/05 04:02:31;;;;;;;6.20;3.83;;;;;;;23.39;50.62;100922.38;1748688;80;21079;-46
2021/09/05 04:04:57;;;;;;;5.45;3.45;;;;;;;23.38;50.64;100916.02;1744933;81;21640;-47
2021/09/05 04:07:23;;;;;;;5.22;3.52;;;;;;;23.38;50.66;100913.23;1749001;81;20932;-46
2021/09/05 04:12:34;;;;;;;5.33;3.65;;;;;;;23.38;50.69;100934.06;1749372;81;21080;-46
2021/09/05 04:15:00;;;;;;;5.67;4.10;;;;;;;23.37;50.71;100939.39;1749289;79;21507;-47
2021/09/05 04:17:26;;;;;;;4.87;3.37;;;;;;;23.38;50.72;100941.61;1744229;80;21948;-49
2021/09/05 04:19:53;;;;;;;5.28;3.55;;;;;;;23.37;50.72;100942.74;1748919;81;21036;-46
2021/09/05 04:22:21;;;;;;;5.85;3.70;;;;;;;23.37;50.74;100953.84;1750465;81;21076;-47
2021/09/05 04:24:47;;;;;;;5.00;3.50;;;;;;;23.37;50.76;100955.23;1754287;81;21017;-45
2021/09/05 04:27:14;;;;;;;4.95;3.50;;;;;;;23.37;50.79;100953.84;1742448;81;21531;-46
2021/09/05 04:29:40;;;;;;;6.30;3.77;;;;;;;23.37;50.79;100963.00;1748207;80;21522;-47
2021/09/05 04:32:10;;;;;;;4.97;3.40;;;;;;;23.37;50.79;100968.55;1749703;81;21339;-46
2021/09/05 04:34:36;;;;;;;4.92;3.33;;;;;;;23.37;50.81;100971.33;1748424;81;21989;-47
2021/09/05 04:37:03;;;;;;;5.25;3.85;;;;;;;23.36;50.82;100979.41;1746096;81;21478;-46
2021/09/05 04:39:29;;;;;;;5.40;3.60;;;;;;;23.36;50.86;100982.19;1754434;80;21113;-47
2021/09/05 04:41:55;;;;;;;5.22;3.72;;;;;;;23.37;50.85;100978.27;1747397;81;21028;-46
2021/09/05 04:44:22;;;;;;;5.47;3.40;;;;;;;23.37;50.88;100979.66;1753778;81;21626;-46
2021/09/05 04:46:48;;;;;;;5.92;3.85;;;;;;;23.37;50.87;100991.33;1752807;81;23278;-47
2021/09/05 04:49:14;;;;;;;4.87;3.15;;;;;;;23.37;50.86;100987.98;1746375;81;21115;-46
2021/09/05 04:51:40;;;;;;;5.67;3.90;;;;;;;23.38;50.88;100990.98;1755510;81;21466;-47
2021/09/05 04:54:07;;;;;;;5.45;3.70;;;;;;;23.37;50.87;100993.54;1751962;81;21049;-46
2021/09/05 04:56:33;;;;;;;4.22;3.42;;;;;;;23.38;50.88;100997.13;1754524;79;21064;-47
2021/09/05 04:58:59;;;;;;;5.40;3.72;;;;;;;23.38;50.91;100995.14;1746568;81;21285;-46
2021/09/05 05:01:25;;;;;;;4.90;3.47;;;;;;;23.38;50.89;100996.53;1749272;81;22250;-46
2021/09/05 05:03:51;;;;;;;5.95;3.72;;;;;;;23.38;50.91;100993.76;1747934;79;21075;-46
2021/09/05 05:06:17;;;;;;;4.53;3.37;;;;;;;23.39;50.92;100996.78;1744218;81;21060;-47
2021/09/05 05:08:43;;;;;;;5.05;3.58;;;;;;;23.39;50.92;100994.00;1754447;81;21088;-45
2021/09/05 05:11:14;;;;;;;6.28;3.58;;;;;;;23.39;50.91;100995.96;1750745;81;21109;-46
2021/09/05 05:13:40;;;;;;;4.55;3.52;;;;;;;23.39;50.93;100999.56;1749761;81;21020;-46
2021/09/05 05:16:06;;;;;;;4.85;3.60;;;;;;;23.40;50.93;100998.98;1747033;80;21009;-46
2021/09/05 05:18:32;;;;;;;5.62;3.90;;;;;;;23.40;50.94;100996.21;1742671;81;21566;-46
2021/09/05 05:20:58;;;;;;;5.00;3.42;;;;;;;23.40;50.94;101001.20;1734955;81;20989;-46
2021/09/05 05:23:26;;;;;;;7.97;4.33;;;;;;;23.39;50.93;100999.56;1738679;81;21310;-45
2021/09/05 05:25:52;;;;;;;4.92;3.67;;;;;;;23.40;50.96;101008.14;1749552;81;21495;-48
2021/09/05 05:28:18;;;;;;;4.75;3.62;;;;;;;23.40;50.96;100998.42;1739667;81;21028;-45
2021/09/05 05:30:45;;;;;;;5.58;3.25;;;;;;;23.41;50.97;101011.16;1737671;81;21494;-45
2021/09/05 05:33:11;;;;;;;4.20;3.40;;;;;;;23.42;50.96;101016.15;1772332;80;21032;-55
2021/09/05 05:35:37;;;;;;;5.28;3.70;;;;;;;23.42;50.97;101017.53;1771303;80;21132;-47
2021/09/05 05:38:03;;;;;;;6.05;3.62;;;;;;;23.42;50.98;101021.13;1743510;81;21613;-49
2021/09/05 05:40:32;;;;;;;11.12;5.55;;;;;;;23.41;50.97;101018.10;1750696;81;21053;-46
2021/09/05 05:42:57;;;;;;;54.63;16.42;;;;;;;23.44;50.99;101011.09;1743484;80;21144;-51
2021/09/05 05:45:23;;;;;;;13.32;5.08;;;;;;;23.44;51.03;101017.46;1740373;81;21767;-50
2021/09/05 05:47:50;;;;;;;15.50;7.80;;;;;;;23.45;51.05;101025.22;1742719;81;21118;-47
2021/09/05 05:50:16;;;;;;;34.05;10.50;;;;;;;23.46;51.09;101019.34;1745992;80;21635;-49
2021/09/05 05:52:42;;;;;;;6.58;4.28;;;;;;;23.46;51.13;101016.58;1737494;80;20916;-46
2021/09/05 05:55:09;;;;;;;5.55;3.72;;;;;;;23.47;51.15;101025.12;1741785;80;21139;-47
2021/09/05 05:57:35;;;;;;;4.65;3.45;;;;;;;23.46;51.15;101024.09;1744305;81;21028;-49
2021/09/05 06:00:03;;;;;;;5.60;3.72;;;;;;;23.48;51.16;101031.50;1742765;81;21623;-48
2021/09/05 06:02:29;;;;;;;4.50;3.45;;;;;;;23.46;51.19;101034.63;1739423;80;21731;-47
2021/09/05 06:04:55;;;;;;;35.38;9.10;;;;;;;23.47;51.22;101036.23;1741645;80;21144;-49
2021/09/05 06:07:22;;;;;;;54.38;16.73;;;;;;;23.47;51.22;101036.23;1743840;81;21071;-46
2021/09/05 06:09:48;;;;;;;68.02;20.02;;;;;;;23.47;51.26;101034.02;1737252;81;21043;-46
2021/09/05 06:12:14;;;;;;;32.00;10.30;;;;;;;23.47;51.29;101040.39;1738938;80;21647;-48
2021/09/05 06:14:40;;;;;;;17.02;7.42;;;;;;;23.47;51.33;101040.97;1754537;81;21056;-47
2021/09/05 06:17:06;;;;;;;8.88;4.42;;;;;;;23.48;51.36;101041.22;1755642;80;21507;-47
2021/09/05 06:19:32;;;;;;;11.10;5.28;;;;;;;23.48;51.41;101043.98;1738311;80;21087;-47
2021/09/05 06:21:58;;;;;;;11.93;5.10;;;;;;;23.48;51.45;101054.53;1745987;81;20921;-47
2021/09/05 06:24:25;;;;;;;9.60;4.35;;;;;;;23.48;51.49;101050.36;1743137;81;21219;-46
2021/09/05 06:26:51;;;;;;;10.18;4.50;;;;;;;23.49;51.53;101053.96;1750545;81;20989;-47
2021/09/05 06:29:17;;;;;;;10.63;5.40;;;;;;;23.50;51.55;101052.83;1745998;81;20937;-48
2021/09/05 06:31:43;;;;;;;10.10;5.10;;;;;;;23.49;51.60;101042.85;1739019;81;21087;-46
2021/09/05 06:34:09;;;;;;;5.37;3.75;;;;;;;23.49;51.62;101048.41;1742519;81;20938;-47
2021/09/05 06:36:35;;;;;;;13.95;6.50;;;;;;;23.49;51.66;101044.23;1743603;81;21092;-49
2021/09/05 06:39:01;;;;;;;18.17;6.72;;;;;;;23.50;51.67;101055.03;1742036;81;21650;-47
2021/09/05 06:41:29;;;;;;;10.98;5.10;;;;;;;23.50;51.71;101061.16;1742055;81;20937;-46
2021/09/05 06:43:56;;;;;;;7.45;4.55;;;;;;;23.51;51.73;101064.97;1743837;81;21833;-47
2021/09/05 06:46:23;;;;;;;14.63;5.55;;;;;;;23.51;51.74;101060.80;1746822;81;21163;-47
2021/09/05 06:48:49;;;;;;;53.20;16.32;;;;;;;23.50;51.78;101064.75;1739112;81;21566;-48
2021/09/05 06:51:15;;;;;;;20.32;7.47;;;;;;;23.51;51.80;101062.77;1767819;79;21020;-46
2021/09/05 06:53:42;;;;;;;10.95;5.20;;;;;;;23.51;51.83;101073.87;1771874;80;21104;-50
2021/09/05 06:56:09;;;;;;;116.05;32.38;;;;;;;23.51;51.86;101066.36;1766717;79;21088;-46
2021/09/05 06:58:35;;;;;;;70.40;21.80;;;;;;;23.52;51.88;101074.12;1772230;79;21412;-48
2021/09/05 07:01:02;;;;;;;26.97;9.10;;;;;;;23.51;51.90;101073.30;1743917;80;21176;-46
2021/09/05 07:03:28;;;;;;;10.08;4.87;;;;;;;23.52;51.94;101069.95;1745315;80;21488;-46
2021/09/05 07:05:54;;;;;;;34.48;10.68;;;;;;;23.52;51.98;101066.61;1767803;79;21111;-47
2021/09/05 07:08:21;;;;;;;30.02;8.98;;;;;;;23.53;52.00;101061.88;1754557;79;21111;-47
2021/09/05 07:10:47;;;;;;;35.70;9.30;;;;;;;23.52;52.01;101067.99;1755356;79;21044;-50
2021/09/05 07:13:13;;;;;;;24.00;6.60;;;;;;;23.52;52.05;101076.89;1743906;80;21145;-47
2021/09/05 07:15:39;;;;;;;23.87;6.20;;;;;;;23.53;52.06;101083.52;1738267;81;21546;-47
2021/09/05 07:18:06;;;;;;;27.80;9.40;;;;;;;23.54;52.07;101077.39;1740704;80;21421;-48
2021/09/05 07:20:32;;;;;;;105.32;31.27;;;;;;;23.53;52.10;101084.91;1753266;79;20918;-47
2021/09/05 07:22:58;;;;;;;35.92;10.32;;;;;;;23.54;52.13;101084.34;1753638;79;21114;-46
2021/09/05 07:25:26;;;;;;;23.50;8.18;;;;;;;23.54;52.12;101091.28;1748275;81;21486;-46
2021/09/05 07:27:53;;;;;;;28.35;9.60;;;;;;;23.53;52.12;101089.08;1735783;81;21099;-48
2021/09/05 07:30:19;;;;;;;24.75;7.90;;;;;;;23.52;52.12;101087.44;1736834;80;21041;-48
2021/09/05 07:32:46;;;;;;;33.80;10.55;;;;;;;23.52;52.11;101090.21;1734718;80;21083;-47
2021/09/05 07:35:12;;;;;;;19.05;7.55;;;;;;;23.52;52.08;101090.78;1759508;79;21077;-47
2021/09/05 07:37:38;;;;;;;16.27;6.45;;;;;;;23.53;52.05;101097.41;1756055;81;23195;-47
2021/09/05 07:40:06;;;;;;;53.05;15.55;;;;;;;23.52;52.05;101090.21;1749774;79;22235;-46
2021/09/05 07:42:32;;;;;;;58.52;16.75;;;;;;;23.52;52.01;101097.16;1759950;80;21076;-47
2021/09/05 07:44:58;;;;;;;74.32;24.52;;;;;;;23.52;52.00;101091.59;1751427;81;21569;-47
2021/09/05 07:47:25;;;;;;;90.72;29.77;;;;;;;23.52;51.97;101101.32;1752135;79;21068;-46
2021/09/05 07:49:51;;;;;;;64.20;20.57;;;;;;;23.52;51.93;101097.72;1756967;79;21167;-49
2021/09/05 07:52:17;;;;;;;77.45;24.92;;;;;;;23.51;51.90;101096.91;1748371;79;21586;-49
2021/09/05 07:54:43;;;;;;;127.05;35.60;;;;;;;23.51;51.87;101105.23;1754347;79;21135;-47
2021/09/05 07:57:10;;;;;;;30.37;11.25;;;;;;;23.51;51.81;101091.34;1750206;81;22627;-49
2021/09/05 07:59:36;;;;;;;50.92;17.15;;;;;;;23.51;51.80;101103.84;1749856;79;21081;-50
2021/09/05 08:02:03;;;;;;;304.52;95.20;;;;;;;23.52;51.79;101104.09;1747192;79;21291;-54
2021/09/05 08:04:29;;;;;;;400.38;125.85;;;;;;;23.52;51.76;101106.88;1753308;79;21090;-47
2021/09/05 08:06:55;;;;;;;230.70;62.78;;;;;;;23.52;51.73;101106.05;1749280;81;21162;-46
2021/09/05 08:09:21;;;;;;;133.55;38.02;;;;;;;23.54;51.73;101106.55;1752877;79;21400;-49
2021/09/05 08:11:48;;;;;;;193.35;59.65;;;;;;;23.53;51.72;101109.91;1749616;81;21111;-46
2021/09/05 08:14:14;;;;;;;138.20;41.92;;;;;;;23.53;51.70;101115.45;1749867;81;21064;-47
2021/09/05 08:16:40;;;;;;;234.62;69.12;;;;;;;23.54;51.66;101113.50;1750560;79;21555;-47
2021/09/05 08:19:06;;;;;;;53.35;18.42;;;;;;;23.55;51.63;101104.03;1766407;80;21095;-48
2021/09/05 08:21:32;;;;;;;23.32;9.60;;;;;;;23.55;51.63;101108.98;1762202;80;21111;-47
2021/09/05 08:23:59;;;;;;;17.10;8.50;;;;;;;23.56;51.60;101111.19;1765082;81;21601;-47
2021/09/05 08:26:25;;;;;;;15.28;7.87;;;;;;;23.56;51.58;101103.67;1766732;80;21239;-47
2021/09/05 08:28:52;;;;;;;13.13;8.08;;;;;;;23.56;51.58;101100.90;1762945;81;21269;-47
2021/09/05 08:31:18;;;;;;;10.55;7.10;;;;;;;23.58;51.59;101114.47;1767186;80;21127;-49
2021/09/05 08:33:45;;;;;;;15.83;8.80;;;;;;;23.59;51.61;101111.34;1758824;79;21582;-46
2021/09/05 08:36:11;;;;;;;41.13;16.15;;;;;;;23.59;51.61;101108.56;1764114;79;21074;-47
2021/09/05 08:38:37;;;;;;;68.45;23.52;;;;;;;23.58;51.62;101105.56;1757902;79;21119;-48
2021/09/05 08:41:03;;;;;;;45.63;15.95;;;;;;;23.60;51.63;101109.38;1764981;79;21035;-48
2021/09/05 08:43:30;;;;;;;24.57;9.58;;;;;;;23.60;51.65;101103.83;1765216;79;21007;-47
2021/09/05 08:45:56;;;;;;;13.50;7.95;;;;;;;23.59;51.67;101101.63;1763734;80;21099;-49
2021/09/05 08:48:23;;;;;;;22.52;9.30;;;;;;;23.59;51.70;101103.61;1765872;79;21028;-46
2021/09/05 08:50:52;;;;;;;14.13;7.78;;;;;;;23.59;51.72;101107.17;1764679;79;21499;-49
2021/09/05 08:53:18;;;;;;;16.75;7.08;;;;;;;23.59;51.76;101105.00;1765088;80;21104;-47
2021/09/05 08:55:45;;;;;;;59.75;20.85;;;;;;;23.61;51.78;101109.63;1760934;79;21097;-48
2021/09/05 08:58:12;;;;;;;21.45;9.55;;;;;;;23.59;51.82;101096.06;1764712;79;21117;-46
2021/09/05 09:00:39;;;;;;;13.98;7.25;;;;;;;23.60;51.86;101100.48;1760608;79;21141;-50
2021/09/05 09:03:05;;;;;;;13.58;7.33;;;;;;;23.59;51.88;101103.01;1757010;79;22040;-50
2021/09/05 09:05:41;;;;;;;12.58;7.65;;;;;;;23.60;51.94;101094.92;1755794;79;21040;-47
2021/09/05 09:08:11;;;;;;;13.50;7.47;;;;;;;23.61;51.97;101097.95;1760206;79;21106;-47
2021/09/05 09:10:52;;;;;;;11.12;7.30;;;;;;;23.61;52.02;101095.17;1759631;79;21068;-47
2021/09/05 09:13:35;;;;;;;14.60;7.83;;;;;;;23.63;52.06;101101.80;1759222;79;21241;-51
2021/09/05 09:16:08;;;;;;;11.73;6.87;;;;;;;23.62;52.11;101106.53;1739003;79;21114;-48
2021/09/05 09:18:36;;;;;;;13.98;6.85;;;;;;;23.63;52.18;101104.01;1754106;79;21468;-45
2021/09/05 09:21:05;;;;;;;10.93;6.95;;;;;;;23.63;52.23;101105.40;1755840;81;21071;-45
2021/09/05 09:23:34;;;;;;;12.40;7.20;;;;;;;23.65;52.28;101103.66;1722975;81;21133;-47
2021/09/05 09:26:12;;;;;;;12.88;7.75;;;;;;;23.64;52.34;101107.58;1753994;80;21076;-47
2021/09/05 09:28:45;;;;;;;12.15;7.00;;;;;;;23.66;52.38;101110.85;1744511;81;21532;-47
2021/09/05 09:31:21;;;;;;;12.85;7.92;;;;;;;23.66;52.46;101103.91;1755222;80;21667;-50
2021/09/05 09:33:51;;;;;;;12.30;6.92;;;;;;;23.67;52.50;101105.55;1755362;81;21001;-48
2021/09/05 09:36:21;;;;;;;14.98;8.63;;;;;;;23.67;52.56;101094.44;1751819;81;21017;-46
2021/09/05 09:39:02;;;;;;;22.13;9.80;;;;;;;23.68;52.62;101095.25;1752918;81;21075;-49
2021/09/05 09:41:41;;;;;;;14.58;7.00;;;;;;;23.70;52.69;101098.50;1740041;81;21060;-51
2021/09/05 09:44:06;;;;;;;11.03;6.35;;;;;;;23.68;52.69;101089.91;1770889;79;21122;-47
2021/09/05 09:46:34;;;;;;;16.05;7.90;;;;;;;23.70;52.73;101092.38;1737882;81;21004;-48
2021/09/05 09:49:06;;;;;;;11.33;6.55;;;;;;;23.71;52.75;101097.36;1747107;80;21072;-48
2021/09/05 09:51:33;;;;;;;12.43;6.75;;;;;;;23.72;52.78;101097.61;1745544;79;21131;-48
2021/09/05 09:53:59;;;;;;;13.03;7.62;;;;;;;23.73;52.81;101097.83;1749054;80;22436;-49
2021/09/05 09:56:27;;;;;;;12.55;7.67;;;;;;;23.74;52.83;101100.28;1746627;80;21056;-50
2021/09/05 09:59:02;;;;;;;16.50;7.42;;;;;;;23.75;52.85;101097.75;1755421;80;21167;-50
2021/09/05 10:01:31;;;;;;;13.28;6.87;;;;;;;23.76;52.88;101094.41;1743637;81;21004;-50
2021/09/05 10:03:59;;;;;;;10.48;6.05;;;;;;;23.77;52.88;101101.00;1739116;79;21153;-49
2021/09/05 10:06:31;;;;;;;12.45;6.65;;;;;;;23.78;52.87;101101.25;1753472;81;21174;-50
2021/09/05 10:09:04;;;;;;;11.45;6.25;;;;;;;23.80;52.90;101093.98;1748262;79;21055;-48
2021/09/05 10:11:30;;;;;;;10.30;6.28;;;;;;;23.81;52.90;101094.20;1752485;79;21104;-48
2021/09/05 10:13:57;;;;;;;15.88;7.30;;;;;;;23.81;52.93;101101.97;1747141;79;21115;-50
2021/09/05 10:16:24;;;;;;;18.90;10.05;;;;;;;23.82;52.93;101095.27;1754810;81;21605;-49
2021/09/05 10:18:51;;;;;;;22.48;10.98;;;;;;;23.83;52.94;101092.73;1744080;80;21760;-48
2021/09/05 10:21:19;;;;;;;24.37;10.90;;;;;;;23.85;53.00;101099.36;1761520;79;21024;-49
2021/09/05 10:23:53;;;;;;;29.23;12.75;;;;;;;23.87;53.09;101095.09;1759382;80;21063;-48
2021/09/05 10:26:19;;;;;;;27.77;13.18;;;;;;;23.87;53.17;101097.05;1760894;80;21065;-48
2021/09/05 10:28:49;;;;;;;31.95;14.50;;;;;;;23.89;53.24;101099.73;1753177;80;21050;-48
2021/09/05 10:31:32;;;;;;;26.60;13.83;;;;;;;23.91;53.33;101104.96;1743643;81;21059;-48
2021/09/05 10:33:58;;;;;;;26.02;12.78;;;;;;;23.92;53.39;101104.64;1766424;80;21066;-48
2021/09/05 10:36:27;;;;;;;23.00;12.75;;;;;;;23.94;53.49;101097.34;1762032;80;21051;-48
2021/09/05 10:39:08;;;;;;;30.37;14.65;;;;;;;23.96;53.56;101106.17;1756160;80;21072;-49
2021/09/05 10:41:33;;;;;;;33.42;14.65;;;;;;;23.98;53.59;101104.68;1743516;80;26453;-50
2021/09/05 10:44:06;;;;;;;31.40;14.78;;;;;;;23.98;53.59;101110.23;1727101;81;21120;-51
2021/09/05 10:46:46;;;;;;;30.65;13.93;;;;;;;24.01;53.69;101102.64;1746807;80;21049;-49
2021/09/05 10:49:12;;;;;;;29.48;13.22;;;;;;;24.02;53.74;101103.43;1724300;81;21605;-47
2021/09/05 10:51:49;;;;;;;30.50;13.75;;;;;;;24.05;53.78;101101.40;1746606;80;21107;-49
2021/09/05 10:54:27;;;;;;;27.32;11.90;;;;;;;24.06;53.80;101112.16;1751293;81;21551;-46
2021/09/05 10:56:55;;;;;;;29.95;13.03;;;;;;;24.08;53.82;101097.38;1761421;80;22001;-47
2021/09/05 10:59:22;;;;;;;45.15;16.80;;;;;;;24.10;53.82;101099.83;1772542;78;21546;-50
2021/09/05 11:01:54;;;;;;;53.55;17.48;;;;;;;24.11;53.80;101107.00;1773836;79;21052;-51
2021/09/05 11:04:26;;;;;;;24.35;11.12;;;;;;;24.13;53.78;101105.53;1771468;78;21056;-47
2021/09/05 11:07:04;;;;;;;31.25;12.90;;;;;;;24.15;53.72;101103.81;1776429;78;21151;-49
2021/09/05 11:09:36;;;;;;;23.57;10.30;;;;;;;24.17;53.67;101102.10;1773661;80;21717;-50
2021/09/05 11:12:23;;;;;;;26.50;12.00;;;;;;;24.19;53.61;101103.38;1774835;80;21018;-48
2021/09/05 11:14:57;;;;;;;21.80;10.30;;;;;;;24.20;53.57;101101.42;1774280;78;21044;-47
2021/09/05 11:17:31;;;;;;;20.35;9.10;;;;;;;24.21;53.53;101096.92;1778922;78;21037;-48
2021/09/05 11:20:12;;;;;;;15.28;6.97;;;;;;;24.23;53.46;101096.00;1735384;81;21066;-49
2021/09/05 11:22:44;;;;;;;12.90;6.30;;;;;;;24.25;53.40;101096.50;1729088;80;21138;-50